Time;durP1;ratioP1;P1;durP2;ratioP2;P2;SDS_P1;SDS_P2;PMS_P1;PMS_P2;Temp;Humidity;BMP_temperature;BMP_pressure;BME280_temperature;BME280_humidity;BME280_pressure;Samples;Min_cycle;Max_cycle;Signal;HPM_P1;HPM_P2
2021/11/16 00:01:03;;;;;;;0.40;0.40;;;11.60;99.90;;;;;;5059441;28;20454;-71
2021/11/16 00:03:35;;;;;;;0.70;0.60;;;11.50;99.90;;;;;;5050146;28;20669;-71
2021/11/16 00:06:06;;;;;;;0.93;0.40;;;11.50;99.90;;;;;;5066103;28;20506;-72
2021/11/16 00:08:37;;;;;;;1.80;0.70;;;11.40;99.90;;;;;;5059498;28;20490;-71
2021/11/16 00:11:08;;;;;;;1.73;0.50;;;11.30;99.90;;;;;;5046344;28;20832;-74
2021/11/16 00:13:39;;;;;;;1.30;0.50;;;11.30;99.90;;;;;;5041898;28;20940;-71
2021/11/16 00:16:10;;;;;;;2.40;0.40;;;11.20;99.90;;;;;;5058873;28;20464;-72
2021/11/16 00:18:43;;;;;;;2.60;0.80;;;11.10;99.90;;;;;;5048145;28;20456;-71
2021/11/16 00:21:18;;;;;;;1.30;0.80;;;11.10;99.90;;;;;;5057098;28;20453;-72
2021/11/16 00:23:53;;;;;;;2.00;0.40;;;11.00;99.90;;;;;;5042996;28;20463;-76
2021/11/16 00:26:24;;;;;;;1.83;0.77;;;10.90;99.90;;;;;;5065761;28;20469;-75
2021/11/16 00:28:55;;;;;;;0.93;0.60;;;10.80;99.90;;;;;;5096285;28;20508;-73
2021/11/16 00:31:26;;;;;;;1.30;0.47;;;10.80;99.90;;;;;;5096631;28;20963;-71
2021/11/16 00:33:59;;;;;;;1.10;0.67;;;10.80;99.90;;;;;;5095534;28;20461;-70
2021/11/16 00:36:31;;;;;;;3.40;1.13;;;10.80;99.90;;;;;;5078884;28;20457;-72
2021/11/16 00:39:02;;;;;;;3.90;0.90;;;10.70;99.90;;;;;;5104916;28;20458;-70
2021/11/16 00:41:33;;;;;;;1.97;1.70;;;10.70;99.90;;;;;;5087501;28;20504;-70
2021/11/16 00:44:04;;;;;;;1.10;0.67;;;10.70;99.90;;;;;;5090531;28;20571;-76
2021/11/16 00:46:35;;;;;;;0.73;0.50;;;10.70;99.90;;;;;;5086003;28;20462;-73
2021/11/16 00:49:07;;;;;;;1.47;1.03;;;10.60;99.90;;;;;;5093897;28;20500;-71
2021/11/16 00:51:38;;;;;;;1.27;0.63;;;10.60;99.90;;;;;;5112547;28;20481;-70
2021/11/16 00:54:09;;;;;;;1.80;0.60;;;10.40;99.90;;;;;;5093233;28;20577;-70
2021/11/16 00:56:40;;;;;;;1.90;0.70;;;10.30;99.90;;;;;;5094676;28;20805;-70
2021/11/16 00:59:11;;;;;;;1.57;1.00;;;10.20;99.90;;;;;;5110808;28;20456;-71
2021/11/16 01:01:42;;;;;;;3.40;0.77;;;10.10;99.90;;;;;;5095637;28;20465;-74
2021/11/16 01:04:16;;;;;;;1.47;0.60;;;10.00;99.90;;;;;;5101474;28;20942;-75
2021/11/16 01:06:47;;;;;;;1.67;0.85;;;10.00;99.90;;;;;;5082127;28;20452;-71
2021/11/16 01:09:18;;;;;;;3.33;1.27;;;9.90;99.90;;;;;;5086781;28;20708;-69
2021/11/16 01:11:49;;;;;;;2.00;1.00;;;10.00;99.90;;;;;;5080427;28;20452;-70
2021/11/16 01:14:21;;;;;;;2.85;0.93;;;9.90;99.90;;;;;;5091062;28;20462;-72
2021/11/16 01:16:52;;;;;;;4.70;1.73;;;9.80;99.90;;;;;;5106224;28;20213;-71
2021/11/16 01:19:24;;;;;;;24.30;9.20;;;9.80;99.90;;;;;;5099403;28;20537;-74
2021/11/16 01:21:55;;;;;;;6.63;3.08;;;9.80;99.90;;;;;;5088817;28;20801;-70
2021/11/16 01:24:26;;;;;;;23.13;11.30;;;9.70;99.90;;;;;;5099487;28;20212;-75
2021/11/16 01:26:58;;;;;;;21.13;9.47;;;9.60;99.90;;;;;;5090286;28;20582;-76
2021/11/16 01:29:29;;;;;;;7.53;4.97;;;9.50;99.90;;;;;;5079379;28;20489;-73
2021/11/16 01:32:00;;;;;;;5.63;2.03;;;9.30;99.90;;;;;;5092957;28;20239;-70
2021/11/16 01:34:33;;;;;;;2.08;1.20;;;9.20;99.90;;;;;;5102093;28;20834;-73
2021/11/16 01:37:09;;;;;;;4.30;1.15;;;9.10;99.90;;;;;;5107860;28;20669;-70
2021/11/16 01:39:40;;;;;;;2.92;1.30;;;9.00;99.90;;;;;;5093317;28;20231;-72
2021/11/16 01:42:11;;;;;;;3.13;1.20;;;9.00;99.90;;;;;;5092722;28;20232;-74
2021/11/16 01:44:42;;;;;;;2.45;1.08;;;8.90;99.90;;;;;;5094582;28;20454;-69
2021/11/16 01:47:12;;;;;;;3.50;1.30;;;8.90;99.90;;;;;;5095891;28;20555;-69
2021/11/16 01:49:45;;;;;;;2.45;1.35;;;8.90;99.90;;;;;;5087745;28;20516;-70
2021/11/16 01:52:16;;;;;;;3.47;1.40;;;8.90;99.90;;;;;;5084773;28;20217;-69
2021/11/16 01:54:47;;;;;;;2.23;1.30;;;8.90;99.90;;;;;;5106552;28;20214;-72
2021/11/16 01:57:18;;;;;;;3.20;1.60;;;8.90;99.90;;;;;;5082220;28;20466;-70
2021/11/16 01:59:49;;;;;;;2.35;1.25;;;8.90;99.90;;;;;;5092205;28;20209;-69
2021/11/16 02:02:20;;;;;;;3.33;1.35;;;8.80;99.90;;;;;;5103177;28;20214;-69
2021/11/16 02:04:53;;;;;;;3.10;1.75;;;8.80;99.90;;;;;;5093560;28;20602;-70
2021/11/16 02:07:24;;;;;;;1.00;0.98;;;8.70;99.90;;;;;;5091858;28;20219;-69
2021/11/16 02:09:54;;;;;;;3.25;1.20;;;8.70;99.90;;;;;;5100011;28;20295;-70
2021/11/16 02:12:25;;;;;;;2.33;1.40;;;8.60;99.90;;;;;;5097446;28;20216;-72
2021/11/16 02:14:56;;;;;;;1.85;1.40;;;8.50;99.90;;;;;;5097035;28;20204;-69
2021/11/16 02:17:27;;;;;;;5.25;2.75;;;8.50;99.90;;;;;;5103094;28;20216;-73
2021/11/16 02:20:00;;;;;;;1.70;1.42;;;8.50;99.90;;;;;;5089884;28;20215;-70
2021/11/16 02:22:33;;;;;;;2.65;1.35;;;8.60;99.90;;;;;;5102838;28;20222;-69
2021/11/16 02:25:05;;;;;;;1.70;1.35;;;8.50;99.90;;;;;;5096787;28;20219;-70
2021/11/16 02:27:36;;;;;;;2.75;1.50;;;8.50;99.90;;;;;;5103763;28;20235;-70
2021/11/16 02:30:09;;;;;;;8.10;3.35;;;8.60;99.90;;;;;;5100192;28;20338;-69
2021/11/16 02:32:40;;;;;;;5.32;3.60;;;8.50;99.90;;;;;;5099505;28;20693;-71
2021/11/16 02:35:11;;;;;;;2.30;1.63;;;8.50;99.90;;;;;;5100552;28;20552;-70
2021/11/16 02:37:43;;;;;;;2.00;1.55;;;8.50;99.90;;;;;;5090672;28;20212;-70
2021/11/16 02:40:15;;;;;;;3.35;1.58;;;8.50;99.90;;;;;;5098408;28;20207;-69
2021/11/16 02:42:46;;;;;;;3.63;1.65;;;8.50;99.90;;;;;;5092842;28;20208;-69
2021/11/16 02:45:19;;;;;;;3.70;1.77;;;8.70;99.90;;;;;;5093600;28;20215;-69
2021/11/16 02:47:50;;;;;;;1.95;1.10;;;8.70;99.90;;;;;;5111153;28;20208;-70
2021/11/16 02:50:22;;;;;;;2.28;1.10;;;8.70;99.90;;;;;;5102083;28;20221;-73
2021/11/16 02:52:54;;;;;;;4.47;1.63;;;8.70;99.90;;;;;;5105624;28;20211;-70
2021/11/16 02:55:25;;;;;;;1.05;0.80;;;8.70;99.90;;;;;;5105921;28;20224;-69
2021/11/16 02:57:56;;;;;;;1.63;0.80;;;8.70;99.90;;;;;;5092425;28;20216;-69
2021/11/16 03:00:27;;;;;;;1.20;0.65;;;8.60;99.90;;;;;;5097334;28;20205;-70
2021/11/16 03:02:58;;;;;;;3.85;1.05;;;8.50;99.90;;;;;;5089802;28;20223;-71
2021/11/16 03:05:33;;;;;;;2.50;1.02;;;8.50;99.90;;;;;;5092343;28;20212;-70
2021/11/16 03:08:14;;;;;;;3.25;1.20;;;8.40;99.90;;;;;;5103936;28;20220;-70
2021/11/16 03:10:45;;;;;;;3.38;0.80;;;8.40;99.90;;;;;;5092359;28;20228;-69
2021/11/16 03:13:16;;;;;;;5.15;1.30;;;8.40;99.90;;;;;;5089308;28;20699;-70
2021/11/16 03:15:48;;;;;;;3.22;0.70;;;8.40;99.90;;;;;;5100119;28;20216;-70
2021/11/16 03:18:22;;;;;;;1.88;1.00;;;8.30;99.90;;;;;;5086296;28;20663;-70
2021/11/16 03:20:53;;;;;;;2.63;0.95;;;8.20;99.90;;;;;;5090665;28;20315;-72
2021/11/16 03:23:26;;;;;;;1.15;0.80;;;8.30;99.90;;;;;;5091807;28;20205;-70
2021/11/16 03:25:59;;;;;;;4.72;1.00;;;8.30;99.90;;;;;;5090378;28;20212;-70
2021/11/16 03:28:33;;;;;;;1.85;0.85;;;8.20;99.90;;;;;;5090103;28;20258;-69
2021/11/16 03:31:10;;;;;;;3.30;1.00;;;8.10;99.90;;;;;;5088549;28;20269;-70
2021/11/16 03:33:41;;;;;;;2.83;1.00;;;8.10;99.90;;;;;;5096027;28;20226;-69
2021/11/16 03:36:13;;;;;;;3.42;1.08;;;8.00;99.90;;;;;;5104989;28;20212;-69
2021/11/16 03:38:46;;;;;;;4.30;0.85;;;7.90;99.90;;;;;;5094350;28;20243;-69
2021/11/16 03:41:17;;;;;;;2.55;0.80;;;7.80;99.90;;;;;;5101290;28;20216;-69
2021/11/16 03:43:51;;;;;;;2.58;1.13;;;7.80;99.90;;;;;;5094159;28;20220;-75
2021/11/16 03:46:22;;;;;;;2.90;1.60;;;7.70;99.90;;;;;;5102877;28;20218;-71
2021/11/16 03:48:53;;;;;;;6.07;1.85;;;7.60;99.90;;;;;;5097509;28;20216;-70
2021/11/16 03:51:24;;;;;;;4.70;1.60;;;7.60;99.90;;;;;;5087163;28;20238;-70
2021/11/16 03:53:57;;;;;;;2.78;1.42;;;7.50;99.90;;;;;;5091258;28;20216;-70
2021/11/16 03:56:28;;;;;;;1.60;1.40;;;7.30;99.90;;;;;;5093470;28;20216;-70
2021/11/16 03:58:59;;;;;;;4.03;1.60;;;7.30;99.90;;;;;;5089661;28;20204;-71
2021/11/16 04:01:30;;;;;;;5.82;1.80;;;7.20;99.90;;;;;;5089457;28;20283;-74
2021/11/16 04:04:01;;;;;;;4.57;1.65;;;7.20;99.90;;;;;;5090329;28;20244;-70
2021/11/16 04:06:32;;;;;;;3.30;1.58;;;7.20;99.90;;;;;;5089215;28;20209;-70
2021/11/16 04:09:05;;;;;;;3.80;2.10;;;7.20;99.90;;;;;;5090885;28;20639;-70
2021/11/16 04:11:35;;;;;;;3.08;1.88;;;7.10;99.90;;;;;;5084983;28;20231;-70
2021/11/16 04:14:06;;;;;;;5.60;2.97;;;7.10;99.90;;;;;;5090867;28;20235;-74
2021/11/16 04:16:37;;;;;;;5.10;2.40;;;7.10;99.90;;;;;;5099986;28;20302;-72
2021/11/16 04:19:08;;;;;;;3.83;2.10;;;7.20;99.90;;;;;;5097069;28;20283;-73
2021/11/16 04:21:39;;;;;;;4.10;3.40;;;7.10;99.90;;;;;;5096715;28;20216;-70
2021/11/16 04:24:11;;;;;;;4.05;3.55;;;7.00;99.90;;;;;;5104512;28;20219;-70
2021/11/16 04:26:42;;;;;;;5.15;4.20;;;7.00;99.90;;;;;;5090689;28;20236;-70
2021/11/16 04:29:13;;;;;;;5.18;3.50;;;7.00;99.90;;;;;;5093642;28;20224;-70
2021/11/16 04:31:44;;;;;;;4.85;2.53;;;7.00;99.90;;;;;;5093240;28;20647;-71
2021/11/16 04:34:16;;;;;;;3.47;2.47;;;7.00;99.90;;;;;;5096814;28;20226;-70
2021/11/16 04:36:47;;;;;;;6.43;3.17;;;7.10;99.90;;;;;;5100724;28;20591;-70
2021/11/16 04:39:19;;;;;;;3.95;2.28;;;7.20;99.90;;;;;;5102609;28;20303;-70
2021/11/16 04:41:50;;;;;;;2.55;2.25;;;7.30;99.90;;;;;;5088908;28;20394;-73
2021/11/16 04:44:21;;;;;;;4.00;2.38;;;7.40;99.90;;;;;;5096466;28;20217;-70
2021/11/16 04:46:52;;;;;;;2.60;2.40;;;7.40;99.90;;;;;;5086905;28;20662;-70
2021/11/16 04:49:26;;;;;;;2.55;1.95;;;7.50;99.90;;;;;;5106408;28;20218;-70
2021/11/16 04:52:15;;;;;;;2.92;1.58;;;7.50;99.90;;;;;;5096214;28;20224;-69
2021/11/16 05:03:30;;;;;;;2.85;1.45;;;7.30;99.90;;;;;;5027560;28;20215;-71
2021/11/16 05:06:01;;;;;;;3.13;1.67;;;7.30;99.90;;;;;;5103125;28;20218;-71
2021/11/16 05:08:31;;;;;;;7.20;2.40;;;7.20;99.90;;;;;;5089262;28;20235;-69
2021/11/16 05:11:04;;;;;;;8.05;5.65;;;7.20;99.90;;;;;;5090680;28;20710;-73
2021/11/16 05:13:35;;;;;;;3.30;2.75;;;7.20;99.90;;;;;;5092940;28;20220;-70
2021/11/16 05:16:07;;;;;;;4.07;3.05;;;7.20;99.90;;;;;;5092825;28;20217;-71
2021/11/16 05:18:38;;;;;;;3.83;1.52;;;7.20;99.90;;;;;;5091406;28;20269;-71
2021/11/16 05:21:09;;;;;;;2.30;1.80;;;7.20;99.90;;;;;;5083730;28;20208;-70
2021/11/16 05:23:48;;;;;;;5.05;2.65;;;7.20;99.90;;;;;;5102470;28;20232;-70
2021/11/16 05:26:21;;;;;;;2.97;2.50;;;7.20;99.90;;;;;;5086674;28;20235;-69
2021/11/16 05:28:52;;;;;;;3.40;3.10;;;7.20;99.90;;;;;;5100915;28;20525;-70
2021/11/16 05:31:23;;;;;;;2.50;2.17;;;7.10;99.90;;;;;;5110087;28;20250;-70
2021/11/16 05:33:54;;;;;;;2.58;2.03;;;6.90;99.90;;;;;;5106938;28;20208;-70
2021/11/16 05:36:25;;;;;;;3.72;2.38;;;6.90;99.90;;;;;;5096163;28;20231;-70
2021/11/16 05:38:56;;;;;;;4.03;1.90;;;6.80;99.90;;;;;;5107696;28;20207;-70
2021/11/16 05:41:29;;;;;;;2.13;1.38;;;6.80;99.90;;;;;;5090232;28;20210;-70
2021/11/16 05:44:00;;;;;;;3.22;1.60;;;6.70;99.90;;;;;;5093824;28;20212;-75
2021/11/16 05:46:31;;;;;;;3.90;1.50;;;6.80;99.90;;;;;;5090474;28;20216;-73
2021/11/16 05:49:02;;;;;;;4.55;1.90;;;6.80;99.90;;;;;;5092861;28;20222;-70
2021/11/16 05:51:32;;;;;;;3.40;2.50;;;6.90;99.90;;;;;;5086011;28;20553;-70
2021/11/16 05:54:03;;;;;;;3.00;2.40;;;6.90;99.90;;;;;;5093457;28;20235;-69
2021/11/16 05:56:38;;;;;;;5.05;3.40;;;6.80;99.90;;;;;;5086260;28;20289;-70
2021/11/16 05:59:09;;;;;;;6.95;3.60;;;6.70;99.90;;;;;;5093420;28;20219;-69
2021/11/16 06:01:41;;;;;;;7.13;4.47;;;6.80;99.90;;;;;;5088502;28;20215;-70
2021/11/16 06:04:12;;;;;;;6.18;3.17;;;6.90;99.90;;;;;;5080231;28;20236;-70
2021/11/16 06:06:43;;;;;;;9.45;3.55;;;7.00;99.90;;;;;;5091851;28;20235;-70
2021/11/16 06:09:15;;;;;;;4.80;4.30;;;7.00;99.90;;;;;;5108710;28;20212;-75
2021/11/16 06:11:48;;;;;;;7.55;6.05;;;7.00;99.90;;;;;;5074859;28;20591;-75
2021/11/16 06:14:19;;;;;;;9.40;6.88;;;7.00;99.90;;;;;;5102824;28;20219;-70
2021/11/16 06:16:50;;;;;;;5.95;5.40;;;7.10;99.90;;;;;;5095185;28;20216;-69
2021/11/16 06:19:24;;;;;;;5.75;5.03;;;7.10;99.90;;;;;;5107806;28;20220;-70
2021/11/16 06:21:55;;;;;;;5.00;4.35;;;7.10;99.90;;;;;;5093787;28;20216;-70
2021/11/16 06:24:25;;;;;;;6.78;4.50;;;7.10;99.90;;;;;;5095940;28;20216;-72
2021/11/16 06:26:58;;;;;;;8.50;4.35;;;7.20;99.90;;;;;;5091629;28;20232;-69
2021/11/16 06:29:29;;;;;;;7.38;3.70;;;7.20;99.90;;;;;;5102651;28;20223;-73
2021/11/16 06:32:00;;;;;;;4.75;3.30;;;7.20;99.90;;;;;;5092235;28;20248;-70
2021/11/16 06:34:31;;;;;;;3.97;3.55;;;7.30;99.90;;;;;;5102277;28;20587;-73
2021/11/16 06:37:02;;;;;;;3.97;2.97;;;7.50;99.90;;;;;;5097050;28;20216;-70
2021/11/16 06:39:32;;;;;;;4.80;3.70;;;7.50;99.90;;;;;;5091147;28;20260;-71
2021/11/16 06:42:06;;;;;;;4.95;3.53;;;7.50;99.90;;;;;;5091279;28;20208;-74
2021/11/16 06:44:37;;;;;;;4.85;2.85;;;7.50;99.90;;;;;;5088850;28;20213;-73
2021/11/16 06:47:12;;;;;;;4.00;2.80;;;7.40;99.90;;;;;;5098519;28;20215;-70
2021/11/16 06:49:47;;;;;;;7.80;2.72;;;7.40;99.90;;;;;;5086952;28;20225;-75
2021/11/16 06:52:19;;;;;;;4.47;3.38;;;7.30;99.90;;;;;;5112700;28;20215;-72
2021/11/16 06:54:50;;;;;;;3.42;2.83;;;7.30;99.90;;;;;;5106322;28;20292;-70
2021/11/16 06:57:26;;;;;;;4.20;3.00;;;7.30;99.90;;;;;;5103694;28;20216;-70
2021/11/16 06:59:57;;;;;;;3.60;2.88;;;7.40;99.90;;;;;;5091775;28;20235;-70
2021/11/16 07:02:29;;;;;;;3.17;2.60;;;7.40;99.90;;;;;;5110234;28;20665;-70
2021/11/16 07:04:59;;;;;;;4.35;2.80;;;7.40;99.90;;;;;;5098420;28;20303;-72
2021/11/16 07:07:30;;;;;;;3.45;3.00;;;7.30;99.90;;;;;;5090269;28;20208;-70
2021/11/16 07:10:02;;;;;;;4.95;2.08;;;7.30;99.90;;;;;;5096664;28;20212;-69
2021/11/16 07:12:35;;;;;;;3.17;2.40;;;7.20;99.90;;;;;;5093738;28;20224;-72
2021/11/16 07:15:06;;;;;;;4.32;2.42;;;7.10;99.90;;;;;;5109678;28;20738;-69
2021/11/16 07:17:37;;;;;;;3.33;2.83;;;7.00;99.90;;;;;;5105057;28;20216;-69
2021/11/16 07:20:09;;;;;;;5.85;3.03;;;6.90;99.90;;;;;;5092521;28;20212;-70
2021/11/16 07:22:41;;;;;;;4.13;2.55;;;6.70;99.90;;;;;;5091988;28;20867;-71
2021/11/16 07:25:14;;;;;;;3.15;2.85;;;6.70;99.90;;;;;;5102875;28;20212;-70
2021/11/16 07:27:48;;;;;;;5.43;3.03;;;6.70;99.90;;;;;;5091209;28;20232;-71
2021/11/16 07:30:24;;;;;;;2.85;2.33;;;6.60;99.90;;;;;;5098420;28;20307;-70
2021/11/16 07:32:56;;;;;;;2.13;1.63;;;6.60;99.90;;;;;;5083356;28;20243;-73
2021/11/16 07:35:29;;;;;;;3.92;2.45;;;6.40;99.90;;;;;;5090033;28;20212;-70
2021/11/16 07:38:01;;;;;;;2.90;2.60;;;6.30;99.90;;;;;;5105566;28;20238;-74
2021/11/16 07:40:33;;;;;;;3.55;2.72;;;6.30;99.90;;;;;;5088375;28;20239;-69
2021/11/16 07:43:09;;;;;;;4.28;3.10;;;6.40;99.90;;;;;;5091321;28;20222;-70
2021/11/16 07:45:42;;;;;;;4.45;3.42;;;6.30;99.90;;;;;;5094920;28;20218;-72
2021/11/16 07:48:14;;;;;;;3.95;3.20;;;6.30;99.90;;;;;;5094661;28;20243;-71
2021/11/16 07:50:53;;;;;;;4.57;3.53;;;6.30;99.90;;;;;;5078301;28;20310;-72
2021/11/16 07:53:25;;;;;;;3.65;3.35;;;6.20;99.90;;;;;;5088290;28;20240;-71
2021/11/16 07:56:02;;;;;;;5.07;3.13;;;6.20;99.90;;;;;;5089943;28;20216;-77
2021/11/16 07:58:37;;;;;;;5.32;3.20;;;6.10;99.90;;;;;;5097986;28;20522;-71
2021/11/16 08:01:11;;;;;;;5.15;3.30;;;6.10;99.90;;;;;;5098635;28;20230;-70
2021/11/16 08:03:49;;;;;;;4.07;3.22;;;6.00;99.90;;;;;;5104840;28;20291;-70
2021/11/16 08:06:30;;;;;;;7.03;3.42;;;6.00;99.90;;;;;;5108197;28;20619;-74
2021/11/16 08:09:18;;;;;;;4.18;3.70;;;5.90;99.90;;;;;;5093404;28;20611;-70
2021/11/16 08:11:53;;;;;;;4.18;3.78;;;5.90;99.90;;;;;;5093826;28;20224;-69
2021/11/16 08:14:26;;;;;;;8.05;3.53;;;5.80;99.90;;;;;;5098814;28;20207;-70
2021/11/16 08:16:59;;;;;;;6.30;3.22;;;5.90;99.90;;;;;;5107755;28;20222;-69
2021/11/16 08:19:32;;;;;;;1241.60;214.63;;;5.90;99.90;;;;;;5093972;28;20289;-70
2021/11/16 08:22:07;;;;;;;3.45;3.15;;;5.90;99.90;;;;;;5103560;28;20204;-73
2021/11/16 08:24:40;;;;;;;3.83;2.70;;;6.00;99.90;;;;;;5102211;28;20217;-71
2021/11/16 08:27:14;;;;;;;5.90;3.30;;;5.90;99.90;;;;;;5089655;28;20228;-79
2021/11/16 08:29:50;;;;;;;6.28;3.33;;;5.90;99.90;;;;;;5090844;28;20686;-71
2021/11/16 08:32:23;;;;;;;7.10;4.25;;;6.00;99.90;;;;;;5086474;28;20245;-72
2021/11/16 08:34:56;;;;;;;4.05;2.90;;;5.90;99.90;;;;;;5111190;28;20216;-69
2021/11/16 08:37:31;;;;;;;5.25;3.88;;;5.90;99.90;;;;;;5086932;28;20223;-75
2021/11/16 08:40:05;;;;;;;7.63;3.65;;;6.00;99.90;;;;;;5090610;28;20212;-70
2021/11/16 08:42:38;;;;;;;6.50;3.85;;;6.00;99.90;;;;;;5105078;28;20211;-70
2021/11/16 08:45:13;;;;;;;4.90;2.83;;;6.10;99.90;;;;;;5090189;28;20307;-71
2021/11/16 08:47:46;;;;;;;5.00;2.70;;;6.00;99.90;;;;;;5091781;28;20215;-69
2021/11/16 08:50:21;;;;;;;3.40;3.10;;;5.90;99.90;;;;;;5101413;28;20219;-70
2021/11/16 08:52:53;;;;;;;5.95;3.13;;;5.90;99.90;;;;;;5090199;28;20232;-71
2021/11/16 08:55:28;;;;;;;3.25;2.95;;;5.80;99.90;;;;;;5086838;28;20236;-72
2021/11/16 08:58:06;;;;;;;4.05;3.33;;;5.80;99.90;;;;;;5094970;28;20243;-70
2021/11/16 09:00:40;;;;;;;5.40;3.13;;;5.70;99.90;;;;;;5099716;28;20209;-69
2021/11/16 09:03:14;;;;;;;3.95;2.70;;;5.60;99.90;;;;;;5102330;28;20212;-76
2021/11/16 09:05:47;;;;;;;4.50;3.22;;;5.60;99.90;;;;;;5088932;28;20587;-70
2021/11/16 09:08:22;;;;;;;2.65;2.45;;;5.60;99.90;;;;;;5092405;28;20240;-69
2021/11/16 09:10:54;;;;;;;3.67;2.80;;;5.50;99.90;;;;;;5085776;28;20216;-69
2021/11/16 09:13:28;;;;;;;4.28;3.15;;;5.40;99.90;;;;;;5106115;28;20234;-69
2021/11/16 09:16:05;;;;;;;4.60;2.92;;;5.40;99.90;;;;;;5090368;28;20211;-71
2021/11/16 09:18:39;;;;;;;4.50;3.65;;;5.40;99.90;;;;;;5098021;28;20208;-70
2021/11/16 09:21:13;;;;;;;5.63;3.80;;;5.30;99.90;;;;;;5090842;28;20323;-73
2021/11/16 09:23:47;;;;;;;4.57;3.35;;;5.30;99.90;;;;;;5082086;28;20220;-69
2021/11/16 09:26:26;;;;;;;3.63;2.92;;;5.20;99.90;;;;;;5084193;28;20259;-77
2021/11/16 09:28:59;;;;;;;3.25;2.88;;;5.10;99.90;;;;;;5098724;28;20223;-69
2021/11/16 09:31:35;;;;;;;3.90;3.60;;;5.10;99.90;;;;;;5105459;28;20311;-69
2021/11/16 09:34:08;;;;;;;3.08;2.78;;;5.10;99.90;;;;;;5095951;28;20227;-69
2021/11/16 09:36:41;;;;;;;3.78;2.97;;;5.10;99.90;;;;;;5095535;28;20220;-73
2021/11/16 09:39:16;;;;;;;4.32;3.05;;;5.10;99.90;;;;;;5097654;28;20212;-69
2021/11/16 09:41:49;;;;;;;3.20;2.90;;;5.10;99.90;;;;;;5098709;28;20218;-75
2021/11/16 09:44:24;;;;;;;4.03;3.20;;;5.10;99.90;;;;;;5100362;28;20208;-71
2021/11/16 09:47:00;;;;;;;41.58;13.32;;;5.20;99.90;;;;;;5083570;28;20575;-71
2021/11/16 09:49:34;;;;;;;50.05;10.57;;;5.10;99.90;;;;;;5089366;28;20551;-70
2021/11/16 09:52:09;;;;;;;194.63;30.17;;;5.10;99.90;;;;;;5100663;28;20208;-72
2021/11/16 09:54:53;;;;;;;6.63;2.83;;;5.20;99.90;;;;;;5089108;28;20598;-70
2021/11/16 09:57:26;;;;;;;5.13;3.30;;;5.10;99.90;;;;;;5093470;28;20589;-72
2021/11/16 10:00:06;;;;;;;6.20;3.42;;;5.30;99.90;;;;;;5092430;28;20208;-70
2021/11/16 10:02:40;;;;;;;6.13;3.08;;;5.30;99.90;;;;;;5108597;28;20215;-74
2021/11/16 10:05:18;;;;;;;6.32;3.40;;;5.40;99.90;;;;;;5110346;28;20522;-69
2021/11/16 10:07:49;;;;;;;5.35;3.40;;;5.40;99.90;;;;;;5096839;28;20225;-69
2021/11/16 10:10:22;;;;;;;4.47;3.50;;;5.40;99.90;;;;;;5093903;28;20256;-69
2021/11/16 10:12:55;;;;;;;5.82;3.55;;;5.40;99.90;;;;;;5091256;28;20604;-69
2021/11/16 10:15:28;;;;;;;5.72;3.50;;;5.50;99.90;;;;;;5090419;28;20213;-70
2021/11/16 10:18:01;;;;;;;4.90;3.20;;;5.60;99.90;;;;;;5092730;28;20239;-70
2021/11/16 10:20:35;;;;;;;4.20;3.58;;;5.50;99.90;;;;;;5090691;28;20231;-72
2021/11/16 10:23:31;;;;;;;5.20;4.28;;;5.50;99.90;;;;;;5081785;28;20218;-73
2021/11/16 10:26:02;;;;;;;5.53;3.03;;;5.50;99.90;;;;;;5092469;28;20258;-70
2021/11/16 10:28:34;;;;;;;4.55;3.00;;;5.60;99.90;;;;;;5102772;28;20212;-70
2021/11/16 10:31:06;;;;;;;6.95;3.58;;;5.50;99.90;;;;;;5099554;28;20211;-71
2021/11/16 10:33:41;;;;;;;4.43;3.00;;;5.50;99.90;;;;;;5108387;28;20230;-77
2021/11/16 10:36:14;;;;;;;6.43;3.85;;;5.50;99.90;;;;;;5107611;28;20214;-75
2021/11/16 10:38:47;;;;;;;4.60;3.40;;;5.50;99.90;;;;;;5109868;28;20212;-70
2021/11/16 10:41:21;;;;;;;4.28;2.80;;;5.40;99.90;;;;;;5101799;28;20219;-69
2021/11/16 10:43:58;;;;;;;4.30;2.63;;;5.40;99.90;;;;;;5077438;28;20211;-69
2021/11/16 10:46:31;;;;;;;5.43;3.65;;;5.40;99.90;;;;;;5083662;28;20612;-70
2021/11/16 10:49:09;;;;;;;3.90;2.63;;;5.30;99.90;;;;;;5096564;28;20654;-69
2021/11/16 10:51:41;;;;;;;9.40;3.78;;;5.30;99.90;;;;;;5096032;28;20212;-71
2021/11/16 10:54:13;;;;;;;6.38;3.42;;;5.20;99.90;;;;;;5092657;28;20300;-70
2021/11/16 10:56:46;;;;;;;5.90;3.55;;;5.10;99.90;;;;;;5103074;28;20212;-70
2021/11/16 10:59:19;;;;;;;5.47;2.72;;;5.10;99.90;;;;;;5092758;28;20210;-70
2021/11/16 11:01:53;;;;;;;6.35;3.30;;;5.10;99.90;;;;;;5089249;28;20239;-73
2021/11/16 11:04:28;;;;;;;4.30;3.40;;;5.00;99.90;;;;;;5097590;28;20207;-69
2021/11/16 11:07:10;;;;;;;6.90;3.75;;;5.00;99.90;;;;;;5105933;28;20207;-69
2021/11/16 11:09:42;;;;;;;8.43;3.47;;;4.90;99.90;;;;;;5094411;28;20584;-69
2021/11/16 11:12:24;;;;;;;6.90;3.67;;;4.90;99.90;;;;;;5081493;28;20227;-72
2021/11/16 11:14:55;;;;;;;5.68;3.50;;;4.90;99.90;;;;;;5083979;28;20232;-71
2021/11/16 11:17:34;;;;;;;3.50;3.20;;;4.90;99.90;;;;;;5090272;28;20212;-69
2021/11/16 11:20:12;;;;;;;5.65;3.72;;;4.80;99.90;;;;;;5093721;28;20226;-69
2021/11/16 11:22:47;;;;;;;4.85;3.63;;;4.80;99.90;;;;;;5087228;28;20579;-69
2021/11/16 11:25:36;;;;;;;6.05;3.60;;;4.70;99.90;;;;;;5103366;28;20203;-72
2021/11/16 11:28:28;;;;;;;5.07;3.28;;;4.70;99.90;;;;;;5107005;28;20239;-69
2021/11/16 11:30:59;;;;;;;6.00;4.00;;;4.70;99.90;;;;;;5082468;28;20591;-69
2021/11/16 11:33:48;;;;;;;3.67;3.35;;;4.70;99.90;;;;;;5091076;28;20251;-69
2021/11/16 11:36:22;;;;;;;9.25;4.25;;;4.70;99.90;;;;;;5078635;28;20262;-69
2021/11/16 11:38:53;;;;;;;7.38;4.20;;;4.60;99.90;;;;;;5091770;28;20728;-70
2021/11/16 11:41:25;;;;;;;7.85;4.35;;;4.60;99.90;;;;;;5087635;28;20262;-69
2021/11/16 11:44:14;;;;;;;9.55;3.35;;;4.60;99.90;;;;;;5091825;28;20209;-69
2021/11/16 11:46:55;;;;;;;6.90;3.95;;;4.60;99.90;;;;;;5082382;28;20562;-74
2021/11/16 11:49:28;;;;;;;12.20;3.67;;;4.50;99.90;;;;;;5088241;28;20591;-70
2021/11/16 11:52:02;;;;;;;3.70;3.20;;;4.50;99.90;;;;;;5089565;28;20581;-69
2021/11/16 11:54:33;;;;;;;5.00;3.88;;;4.50;99.90;;;;;;5101753;28;20232;-70
2021/11/16 11:57:05;;;;;;;4.88;3.00;;;4.50;99.90;;;;;;5097451;28;20220;-70
2021/11/16 11:59:35;;;;;;;4.32;3.15;;;4.50;99.90;;;;;;5094308;28;20216;-73
2021/11/16 12:02:09;;;;;;;740.47;118.72;;;4.50;99.90;;;;;;5104997;28;20212;-69
2021/11/16 12:04:41;;;;;;;5.93;3.17;;;4.50;99.90;;;;;;5095824;28;20220;-70
2021/11/16 12:07:15;;;;;;;7.45;4.03;;;4.60;99.90;;;;;;5089656;28;20216;-69
2021/11/16 12:09:47;;;;;;;7.35;3.90;;;4.50;99.90;;;;;;5086428;28;20578;-70
2021/11/16 12:12:19;;;;;;;7.25;3.90;;;4.50;99.90;;;;;;5087527;28;20238;-72
2021/11/16 12:14:59;;;;;;;6.55;2.85;;;4.50;99.90;;;;;;5089456;28;20239;-78
2021/11/16 12:17:32;;;;;;;8.82;3.53;;;4.50;99.90;;;;;;5090063;28;20223;-72
2021/11/16 12:20:03;;;;;;;4.85;3.90;;;4.50;99.90;;;;;;5092978;28;20674;-69
2021/11/16 12:22:35;;;;;;;8.07;3.85;;;4.50;99.90;;;;;;5110864;28;20580;-69
2021/11/16 12:25:22;;;;;;;5.03;3.50;;;4.60;99.90;;;;;;5104417;28;20220;-70
2021/11/16 12:27:53;;;;;;;4.75;3.78;;;4.60;99.90;;;;;;5097912;28;20228;-73
2021/11/16 12:30:36;;;;;;;10.85;3.75;;;4.70;99.90;;;;;;5087069;28;20227;-69
2021/11/16 12:33:07;;;;;;;9.25;3.60;;;4.70;99.90;;;;;;5084659;28;20205;-70
2021/11/16 12:35:48;;;;;;;6.88;4.20;;;4.80;99.90;;;;;;5088704;28;20327;-73
2021/11/16 12:38:20;;;;;;;7.32;3.55;;;4.90;99.90;;;;;;5090273;28;20240;-70
2021/11/16 12:40:51;;;;;;;10.93;3.72;;;4.90;99.90;;;;;;5096179;28;20666;-69
2021/11/16 12:43:25;;;;;;;4.25;3.40;;;5.00;99.90;;;;;;5090987;28;20212;-69
2021/11/16 12:45:57;;;;;;;6.10;3.58;;;5.00;99.90;;;;;;5102529;28;20204;-69
2021/11/16 12:48:42;;;;;;;7.93;3.70;;;5.00;99.90;;;;;;5089755;28;20584;-70
2021/11/16 12:51:15;;;;;;;6.63;2.80;;;5.00;99.90;;;;;;5092399;28;20208;-78
2021/11/16 12:53:58;;;;;;;5.13;2.63;;;5.10;99.90;;;;;;5094844;28;20589;-75
2021/11/16 12:57:01;;;;;;;7.15;3.10;;;5.20;99.90;;;;;;5103013;28;20283;-75
2021/11/16 12:59:54;;;;;;;6.90;3.10;;;5.30;99.90;;;;;;5086628;28;20562;-81
2021/11/16 13:02:27;;;;;;;8.15;3.58;;;5.40;99.90;;;;;;5101974;28;20212;-69
2021/11/16 13:05:00;;;;;;;5.30;2.13;;;5.50;99.90;;;;;;5111841;28;20646;-70
2021/11/16 13:07:34;;;;;;;5.30;2.58;;;5.50;99.90;;;;;;5102882;28;20212;-69
2021/11/16 13:10:12;;;;;;;3.65;2.33;;;5.60;99.90;;;;;;5089325;28;20615;-71
2021/11/16 13:12:52;;;;;;;3.33;1.95;;;5.60;99.90;;;;;;5086283;28;20227;-69
2021/11/16 13:15:42;;;;;;;9.00;2.78;;;5.60;99.90;;;;;;5078893;28;20228;-71
2021/11/16 13:18:27;;;;;;;3.40;2.13;;;5.60;99.90;;;;;;5083513;28;20212;-72
2021/11/16 13:21:09;;;;;;;2.38;1.80;;;5.60;99.90;;;;;;5088511;28;20555;-69
2021/11/16 13:23:44;;;;;;;5.00;1.63;;;5.70;99.90;;;;;;5089479;28;20220;-70
2021/11/16 13:26:25;;;;;;;5.28;2.55;;;5.60;99.90;;;;;;5088199;28;20329;-70
2021/11/16 13:29:10;;;;;;;7.68;2.45;;;5.70;99.90;;;;;;5091602;28;20294;-72
2021/11/16 13:31:45;;;;;;;4.10;2.35;;;5.70;99.90;;;;;;5102296;28;20223;-69
2021/11/16 13:34:20;;;;;;;6.25;2.30;;;5.60;99.90;;;;;;5102323;28;20216;-74
2021/11/16 13:36:54;;;;;;;4.07;1.80;;;5.70;99.90;;;;;;5093283;28;20585;-75